Terminal Aerodrome Forecast
Issued by NWS

Home | Current Version | Previous Version | Graphics & Text | Print | Product List | Glossary On
Versions: 1 2 3 4 5 6 7 8 9 10 11 12 13 14 15 16 17 18 19 20 21
777
FTUS43 KGRB 262125 AAA
TAFATW
TAF AMD
KATW 262125Z 2621/2718 05013G20KT P6SM BKN022 BKN070
      TEMPO 2622/2624 SCT022
     FM270000 04010G16KT P6SM SCT080
     FM270600 03007KT P6SM SKC
     FM271600 06014G23KT P6SM SCT250=

USA.gov is the U.S. government's official web portal to all federal, state and local government web resources and services.